createdAt,value
2024-02-29T00:01:01.060Z,1021.73
2024-02-29T00:01:59.987Z,1021.75
2024-02-29T00:02:58.901Z,1021.76
2024-02-29T00:04:00.968Z,1021.72
2024-02-29T00:04:59.773Z,1021.69
2024-02-29T00:06:01.339Z,1021.72
2024-02-29T00:07:00.017Z,1021.73
2024-02-29T00:07:58.782Z,1021.72
2024-02-29T00:09:01.025Z,1021.72
2024-02-29T00:09:59.778Z,1021.7
2024-02-29T00:11:01.077Z,1021.68
2024-02-29T00:11:59.728Z,1021.68
2024-02-29T00:13:01.382Z,1021.69
2024-02-29T00:14:00.151Z,1021.68
2024-02-29T00:14:58.837Z,1021.62
2024-02-29T00:16:01.023Z,1021.64
2024-02-29T00:16:59.740Z,1021.62
2024-02-29T00:18:01.033Z,1021.61
2024-02-29T00:18:59.816Z,1021.58
2024-02-29T00:20:01.025Z,1021.61
2024-02-29T00:20:59.668Z,1021.55
2024-02-29T00:22:00.461Z,1021.57
2024-02-29T00:22:59.171Z,1021.59
2024-02-29T00:23:59.905Z,1021.62
2024-02-29T00:25:01.134Z,1021.58
2024-02-29T00:25:59.810Z,1021.5
2024-02-29T00:27:01.373Z,1021.53
2024-02-29T00:28:00.176Z,1021.51
2024-02-29T00:28:58.901Z,1021.53
2024-02-29T00:30:01.648Z,1021.51
2024-02-29T00:31:01.401Z,1021.47
2024-02-29T00:32:00.055Z,1021.49
2024-02-29T00:32:58.816Z,1021.5
2024-02-29T00:34:01.025Z,1021.49
2024-02-29T00:34:59.754Z,1021.47
2024-02-29T00:36:09.053Z,1021.45
2024-02-29T00:37:01.027Z,1021.46
2024-02-29T00:37:59.695Z,1021.44
2024-02-29T00:39:06.258Z,1021.43
2024-02-29T00:40:01.474Z,1021.39
2024-02-29T00:41:00.201Z,1021.44
2024-02-29T00:41:58.890Z,1021.38
2024-02-29T00:43:01.021Z,1021.4
2024-02-29T00:43:59.729Z,1021.34
2024-02-29T00:45:00.991Z,1021.36
2024-02-29T00:45:59.891Z,1021.34
2024-02-29T00:47:01.033Z,1021.36
2024-02-29T00:47:59.785Z,1021.32
2024-02-29T00:49:01.030Z,1021.36
2024-02-29T00:49:59.749Z,1021.32
2024-02-29T00:51:00.994Z,1021.29
2024-02-29T00:51:59.781Z,1021.3
2024-02-29T00:53:01.001Z,1021.29
2024-02-29T00:53:59.671Z,1021.25
2024-02-29T00:55:00.357Z,1021.25
2024-02-29T00:56:00.975Z,1021.25
2024-02-29T00:56:59.694Z,1021.23
2024-02-29T00:58:00.959Z,1021.19
2024-02-29T00:58:59.704Z,1021.21
2024-02-29T01:00:01.078Z,1021.21
2024-02-29T01:01:04.271Z,1021.26
2024-02-29T01:02:01.083Z,1021.24
2024-02-29T01:02:59.855Z,1021.26
2024-02-29T01:04:01.078Z,1021.27
2024-02-29T01:04:59.857Z,1021.26
2024-02-29T01:06:06.610Z,1021.21
2024-02-29T01:07:01.017Z,1021.22
2024-02-29T01:07:59.668Z,1021.2
2024-02-29T01:09:00.381Z,1021.16
2024-02-29T01:09:59.083Z,1021.2
2024-02-29T01:11:09.095Z,1021.14
2024-02-29T01:11:59.783Z,1021.16
2024-02-29T01:13:01.259Z,1021.07
2024-02-29T01:14:00.025Z,1021.11
2024-02-29T01:14:58.690Z,1021.09
2024-02-29T01:16:12.438Z,1021.11
2024-02-29T01:17:00.954Z,1021.09
2024-02-29T01:17:59.661Z,1021.09
2024-02-29T01:19:00.361Z,1021.08
2024-02-29T01:19:59.143Z,1021.1
2024-02-29T01:21:14.733Z,1021.1
2024-02-29T01:22:01.165Z,1021.05
2024-02-29T01:22:59.847Z,1021.04
2024-02-29T01:24:01.250Z,1021.01
2024-02-29T01:24:59.928Z,1021.06
2024-02-29T01:25:58.650Z,1021.08
2024-02-29T01:27:00.287Z,1021.04
2024-02-29T01:27:59.016Z,1021.04
2024-02-29T01:28:59.802Z,1021.02
2024-02-29T01:30:00.977Z,1021
2024-02-29T01:30:59.749Z,1021.02
2024-02-29T01:32:09.226Z,1021.04
2024-02-29T01:33:01.119Z,1021
2024-02-29T01:33:59.879Z,1020.94
2024-02-29T01:35:01.350Z,1020.96
2024-02-29T01:36:00.046Z,1020.95
2024-02-29T01:36:58.762Z,1020.91
2024-02-29T01:38:00.997Z,1020.9
2024-02-29T01:38:59.673Z,1020.91
2024-02-29T01:40:00.385Z,1020.92
2024-02-29T01:40:59.148Z,1020.93
2024-02-29T01:41:59.879Z,1020.92
2024-02-29T01:43:03.211Z,1020.9
2024-02-29T01:43:59.889Z,1020.94
2024-02-29T01:45:01.148Z,1020.89
2024-02-29T01:45:59.848Z,1020.79
2024-02-29T01:47:01.059Z,1020.84
2024-02-29T01:47:59.743Z,1020.84
2024-02-29T01:49:01.091Z,1020.86
2024-02-29T01:49:59.825Z,1020.83
2024-02-29T01:51:00.969Z,1020.81
2024-02-29T01:51:59.818Z,1020.81
2024-02-29T01:53:01.575Z,1020.77
2024-02-29T01:54:00.204Z,1020.76
2024-02-29T01:54:58.975Z,1020.74
2024-02-29T01:55:59.658Z,1020.72
2024-02-29T01:57:01.012Z,1020.73
2024-02-29T01:57:59.872Z,1020.71
2024-02-29T01:59:01.030Z,1020.73
2024-02-29T01:59:59.680Z,1020.74
2024-02-29T02:01:00.754Z,1020.77
2024-02-29T02:01:59.553Z,1020.76
2024-02-29T02:03:00.362Z,1020.75
2024-02-29T02:03:59.036Z,1020.73
2024-02-29T02:04:59.723Z,1020.73
2024-02-29T02:06:01.073Z,1020.68
2024-02-29T02:06:59.761Z,1020.71
2024-02-29T02:08:00.974Z,1020.67
2024-02-29T02:08:59.746Z,1020.68
2024-02-29T02:10:01.090Z,1020.69
2024-02-29T02:10:59.813Z,1020.65
2024-02-29T02:12:01.123Z,1020.67
2024-02-29T02:12:59.912Z,1020.62
2024-02-29T02:13:58.556Z,1020.69
2024-02-29T02:15:00.459Z,1020.67
2024-02-29T02:15:59.201Z,1020.64
2024-02-29T02:16:59.925Z,1020.65
2024-02-29T02:18:01.104Z,1020.63
2024-02-29T02:18:59.833Z,1020.67
2024-02-29T02:20:02.688Z,1020.64
2024-02-29T02:21:01.057Z,1020.66
2024-02-29T02:21:59.789Z,1020.63
2024-02-29T02:23:00.962Z,1020.61
2024-02-29T02:23:59.622Z,1020.55
2024-02-29T02:25:00.353Z,1020.57
2024-02-29T02:25:59.488Z,1020.56
2024-02-29T02:27:00.264Z,1020.5
2024-02-29T02:27:58.941Z,1020.48
2024-02-29T02:28:59.668Z,1020.49
2024-02-29T02:30:00.318Z,1020.46
2024-02-29T02:30:59.074Z,1020.48
2024-02-29T02:31:59.804Z,1020.43
2024-02-29T02:33:01.086Z,1020.43
2024-02-29T02:33:59.838Z,1020.42
2024-02-29T02:35:01.053Z,1020.38
2024-02-29T02:35:59.869Z,1020.41
2024-02-29T02:37:01.540Z,1020.38
2024-02-29T02:38:00.222Z,1020.4
2024-02-29T02:38:58.849Z,1020.39
2024-02-29T02:40:01.122Z,1020.38
2024-02-29T02:40:59.944Z,1020.35
2024-02-29T02:41:59.749Z,1020.34
2024-02-29T02:43:01.060Z,1020.35
2024-02-29T02:43:59.862Z,1020.31
2024-02-29T02:45:01.081Z,1020.24
2024-02-29T02:45:59.792Z,1020.3
2024-02-29T02:47:01.926Z,1020.25
2024-02-29T02:48:01.371Z,1020.23
2024-02-29T02:48:59.714Z,1020.24
2024-02-29T02:50:00.955Z,1020.19
2024-02-29T02:50:59.678Z,1020.18
2024-02-29T02:52:05.554Z,1020.11
2024-02-29T02:53:01.169Z,1020.14
2024-02-29T02:53:59.837Z,1020.14
2024-02-29T02:55:01.190Z,1020.16
2024-02-29T02:55:59.850Z,1020.13
2024-02-29T02:57:07.690Z,1020.18
2024-02-29T02:58:00.282Z,1020.21
2024-02-29T02:58:58.927Z,1020.17
2024-02-29T02:59:59.769Z,1020.23
2024-02-29T03:01:01.011Z,1020.21
2024-02-29T03:02:10.507Z,1020.18
2024-02-29T03:02:59.781Z,1020.2
2024-02-29T03:04:01.100Z,1020.15
2024-02-29T03:04:59.850Z,1020.16
2024-02-29T03:06:00.944Z,1020.11
2024-02-29T03:07:12.521Z,1020.11
2024-02-29T03:07:59.589Z,1020.08
2024-02-29T03:09:00.317Z,1020.09
2024-02-29T03:09:59.170Z,1020.1
2024-02-29T03:10:59.959Z,1020.09
2024-02-29T03:11:58.833Z,1020.12
2024-02-29T03:13:01.059Z,1020.13
2024-02-29T03:13:59.726Z,1020.17
2024-02-29T03:15:01.128Z,1020.14
2024-02-29T03:15:59.785Z,1020.13
2024-02-29T03:17:16.662Z,1020.11
2024-02-29T03:18:01.417Z,1020.09
2024-02-29T03:19:00.213Z,1020.09
2024-02-29T03:19:58.852Z,1020.06
2024-02-29T03:21:01.020Z,1020.06
2024-02-29T03:21:59.722Z,1020.08
2024-02-29T03:23:01.409Z,1020.09
2024-02-29T03:24:00.047Z,1020.1
2024-02-29T03:24:58.771Z,1020.09
2024-02-29T03:26:01.178Z,1020.1
2024-02-29T03:26:59.815Z,1020.06
2024-02-29T03:28:01.000Z,1020.02
2024-02-29T03:28:59.648Z,1020.02
2024-02-29T03:30:00.986Z,1020.05
2024-02-29T03:31:00.108Z,1020.04
2024-02-29T03:31:58.830Z,1020.04
2024-02-29T03:33:01.129Z,1020.02
2024-02-29T03:33:59.949Z,1019.99
2024-02-29T03:34:58.672Z,1020.02
2024-02-29T03:36:00.399Z,1020.03
2024-02-29T03:36:59.089Z,1020
2024-02-29T03:37:59.788Z,1019.99
2024-02-29T03:39:01.063Z,1019.95
2024-02-29T03:39:59.734Z,1019.95
2024-02-29T03:41:00.950Z,1019.96
2024-02-29T03:41:59.720Z,1020.01
2024-02-29T03:43:01.503Z,1019.98
2024-02-29T03:44:00.243Z,1019.98
2024-02-29T03:44:58.906Z,1019.99
2024-02-29T03:46:00.995Z,1020.01
2024-02-29T03:46:59.642Z,1019.98
2024-02-29T03:48:01.018Z,1019.98
2024-02-29T03:49:00.159Z,1019.96
2024-02-29T03:49:58.970Z,1019.95
2024-02-29T03:50:59.668Z,1019.99
2024-02-29T03:52:00.439Z,1019.92
2024-02-29T03:52:59.179Z,1020.01
2024-02-29T03:54:00.221Z,1019.95
2024-02-29T03:54:58.903Z,1019.98
2024-02-29T03:56:01.039Z,1019.94
2024-02-29T03:56:59.726Z,1019.94
2024-02-29T03:58:01.115Z,1019.91
2024-02-29T03:58:59.820Z,1019.94
2024-02-29T04:00:01.204Z,1019.89
2024-02-29T04:00:59.976Z,1019.91
2024-02-29T04:01:58.748Z,1019.95
2024-02-29T04:03:00.994Z,1019.91
2024-02-29T04:03:59.698Z,1019.89
2024-02-29T04:05:01.044Z,1019.88
2024-02-29T04:05:59.673Z,1019.87
2024-02-29T04:07:00.348Z,1019.88
2024-02-29T04:07:59.073Z,1019.88
2024-02-29T04:08:59.888Z,1019.88
2024-02-29T04:10:01.475Z,1019.92
2024-02-29T04:11:00.226Z,1019.93
2024-02-29T04:11:58.894Z,1019.92
2024-02-29T04:13:01.139Z,1019.9
2024-02-29T04:13:59.912Z,1019.9
2024-02-29T04:15:01.062Z,1019.86
2024-02-29T04:15:59.734Z,1019.95
2024-02-29T04:17:00.986Z,1019.88
2024-02-29T04:17:59.911Z,1019.83
2024-02-29T04:18:58.757Z,1019.87
2024-02-29T04:20:01.011Z,1019.78
2024-02-29T04:20:59.800Z,1019.78
2024-02-29T04:22:01.145Z,1019.78
2024-02-29T04:23:00.101Z,1019.84
2024-02-29T04:23:58.782Z,1019.76
2024-02-29T04:25:01.253Z,1019.74
2024-02-29T04:26:00.018Z,1019.72
2024-02-29T04:26:58.668Z,1019.7
2024-02-29T04:28:01.122Z,1019.68
2024-02-29T04:28:59.801Z,1019.68
2024-02-29T04:30:01.050Z,1019.66
2024-02-29T04:30:59.786Z,1019.66
2024-02-29T04:32:00.966Z,1019.65
2024-02-29T04:33:00.905Z,1019.63
2024-02-29T04:33:59.659Z,1019.61
2024-02-29T04:35:01.853Z,1019.63
2024-02-29T04:36:01.119Z,1019.65
2024-02-29T04:36:59.865Z,1019.61
2024-02-29T04:38:03.354Z,1019.65
2024-02-29T04:39:01.001Z,1019.63
2024-02-29T04:39:59.901Z,1019.66
2024-02-29T04:41:01.025Z,1019.66
2024-02-29T04:41:59.685Z,1019.64
2024-02-29T04:43:05.788Z,1019.64
2024-02-29T04:44:01.479Z,1019.62
2024-02-29T04:45:00.264Z,1019.59
2024-02-29T04:45:58.908Z,1019.59
2024-02-29T04:46:59.609Z,1019.62
2024-02-29T04:48:08.681Z,1019.51
2024-02-29T04:49:00.389Z,1019.58
2024-02-29T04:49:59.134Z,1019.57
2024-02-29T04:50:59.860Z,1019.6
2024-02-29T04:52:01.359Z,1019.53
2024-02-29T04:53:11.607Z,1019.53
2024-02-29T04:53:59.776Z,1019.49
2024-02-29T04:55:01.080Z,1019.48
2024-02-29T04:55:59.776Z,1019.46
2024-02-29T04:57:01.031Z,1019.42
2024-02-29T04:58:14.063Z,1019.43
2024-02-29T04:58:59.680Z,1019.45
2024-02-29T05:00:00.437Z,1019.44
2024-02-29T05:00:59.257Z,1019.46
2024-02-29T05:02:02.143Z,1019.5
2024-02-29T05:03:00.027Z,1019.48
2024-02-29T05:03:58.700Z,1019.46
2024-02-29T05:05:00.972Z,1019.45
2024-02-29T05:05:59.746Z,1019.39
2024-02-29T05:07:01.047Z,1019.45
2024-02-29T05:07:59.757Z,1019.47
2024-02-29T05:09:01.370Z,1019.46
2024-02-29T05:10:00.107Z,1019.44
2024-02-29T05:10:58.893Z,1019.45
2024-02-29T05:12:01.016Z,1019.51
2024-02-29T05:12:59.715Z,1019.51
2024-02-29T05:14:00.407Z,1019.53
2024-02-29T05:14:59.164Z,1019.59
2024-02-29T05:15:59.887Z,1019.53
2024-02-29T05:17:01.104Z,1019.5
2024-02-29T05:17:59.810Z,1019.5
2024-02-29T05:19:01.026Z,1019.47
2024-02-29T05:19:59.900Z,1019.5
2024-02-29T05:21:00.985Z,1019.49
2024-02-29T05:21:59.680Z,1019.47
2024-02-29T05:23:00.348Z,1019.47
2024-02-29T05:23:59.148Z,1019.43
2024-02-29T05:24:59.949Z,1019.44
2024-02-29T05:25:58.639Z,1019.42
2024-02-29T05:27:00.296Z,1019.42
2024-02-29T05:27:58.964Z,1019.36
2024-02-29T05:28:59.671Z,1019.36
2024-02-29T05:30:01.017Z,1019.34
2024-02-29T05:30:59.731Z,1019.36
2024-02-29T05:32:01.146Z,1019.37
2024-02-29T05:32:59.925Z,1019.31
2024-02-29T05:33:58.645Z,1019.34
2024-02-29T05:35:01.120Z,1019.3
2024-02-29T05:35:59.828Z,1019.31
2024-02-29T05:37:01.017Z,1019.25
2024-02-29T05:37:59.891Z,1019.25
2024-02-29T05:39:01.091Z,1019.29
2024-02-29T05:39:59.846Z,1019.29
2024-02-29T05:41:01.056Z,1019.28
2024-02-29T05:41:59.754Z,1019.3
2024-02-29T05:43:01.222Z,1019.26
2024-02-29T05:43:59.874Z,1019.29
2024-02-29T05:45:01.092Z,1019.3
2024-02-29T05:45:59.840Z,1019.33
2024-02-29T05:47:01.031Z,1019.22
2024-02-29T05:47:59.735Z,1019.26
2024-02-29T05:49:01.072Z,1019.25
2024-02-29T05:49:59.828Z,1019.21
2024-02-29T05:51:01.064Z,1019.26
2024-02-29T05:51:59.792Z,1019.27
2024-02-29T05:53:00.553Z,1019.27
2024-02-29T05:53:59.234Z,1019.31
2024-02-29T05:55:00.001Z,1019.31
2024-02-29T05:55:58.800Z,1019.33
2024-02-29T05:57:04.304Z,1019.31
2024-02-29T05:58:01.035Z,1019.33
2024-02-29T05:58:59.890Z,1019.38
2024-02-29T06:00:01.001Z,1019.36
2024-02-29T06:00:59.842Z,1019.35
2024-02-29T06:01:58.737Z,1019.37
2024-02-29T06:03:00.982Z,1019.39
2024-02-29T06:03:59.746Z,1019.34
2024-02-29T06:05:00.946Z,1019.37
2024-02-29T06:05:59.685Z,1019.4
2024-02-29T06:07:01.111Z,1019.41
2024-02-29T06:07:59.831Z,1019.39
2024-02-29T06:09:01.348Z,1019.4
2024-02-29T06:10:00.015Z,1019.38
2024-02-29T06:10:58.730Z,1019.43
2024-02-29T06:12:00.984Z,1019.49
2024-02-29T06:12:59.673Z,1019.43
2024-02-29T06:14:00.361Z,1019.47
2024-02-29T06:14:59.118Z,1019.44
2024-02-29T06:15:59.803Z,1019.41
2024-02-29T06:17:00.946Z,1019.46
2024-02-29T06:18:00.109Z,1019.39
2024-02-29T06:18:58.902Z,1019.38
2024-02-29T06:19:59.575Z,1019.39
2024-02-29T06:21:00.405Z,1019.38
2024-02-29T06:21:59.341Z,1019.38
2024-02-29T06:23:00.069Z,1019.4
2024-02-29T06:23:58.907Z,1019.39
2024-02-29T06:25:01.134Z,1019.36
2024-02-29T06:25:59.843Z,1019.33
2024-02-29T06:27:01.383Z,1019.37
2024-02-29T06:28:00.069Z,1019.39
2024-02-29T06:28:58.823Z,1019.41
2024-02-29T06:30:00.954Z,1019.33
2024-02-29T06:30:59.797Z,1019.38
2024-02-29T06:32:01.018Z,1019.35
2024-02-29T06:32:59.785Z,1019.39
2024-02-29T06:34:01.444Z,1019.39
2024-02-29T06:35:00.196Z,1019.39
2024-02-29T06:35:58.885Z,1019.34
2024-02-29T06:37:01.076Z,1019.37
2024-02-29T06:37:59.820Z,1019.32
2024-02-29T06:39:00.955Z,1019.32
2024-02-29T06:40:00.032Z,1019.36
2024-02-29T06:41:00.068Z,1019.41
2024-02-29T06:41:58.707Z,1019.32
2024-02-29T06:43:01.147Z,1019.37
2024-02-29T06:44:01.657Z,1019.3
2024-02-29T06:44:59.826Z,1019.29
2024-02-29T06:46:01.043Z,1019.29
2024-02-29T06:46:59.762Z,1019.29
2024-02-29T06:48:01.061Z,1019.31
2024-02-29T06:49:03.528Z,1019.26
2024-02-29T06:50:00.976Z,1019.29
2024-02-29T06:50:59.865Z,1019.25
2024-02-29T06:52:01.215Z,1019.27
2024-02-29T06:52:59.934Z,1019.25
2024-02-29T06:54:06.001Z,1019.25
2024-02-29T06:54:59.611Z,1019.32
2024-02-29T06:56:00.402Z,1019.23
2024-02-29T06:56:59.105Z,1019.25
2024-02-29T06:57:59.858Z,1019.29
2024-02-29T06:59:09.260Z,1019.3
2024-02-29T07:00:00.989Z,1019.32
2024-02-29T07:00:59.785Z,1019.32
2024-02-29T07:02:01.522Z,1019.36
2024-02-29T07:03:00.260Z,1019.34
2024-02-29T07:04:12.175Z,1019.35
2024-02-29T07:05:00.002Z,1019.35
2024-02-29T07:05:58.660Z,1019.37
2024-02-29T07:07:01.072Z,1019.33
2024-02-29T07:07:59.825Z,1019.31
2024-02-29T07:09:15.318Z,1019.31
2024-02-29T07:10:00.334Z,1019.31
2024-02-29T07:11:02.025Z,1019.29
2024-02-29T07:11:59.809Z,1019.26
2024-02-29T07:13:01.270Z,1019.27
2024-02-29T07:14:00.148Z,1019.21
2024-02-29T07:14:58.782Z,1019.23
2024-02-29T07:16:01.181Z,1019.23
2024-02-29T07:16:59.855Z,1019.21
2024-02-29T07:18:01.062Z,1019.24
2024-02-29T07:18:59.809Z,1019.2
2024-02-29T07:20:01.332Z,1019.19
2024-02-29T07:20:59.975Z,1019.21
2024-02-29T07:21:58.701Z,1019.21
2024-02-29T07:23:01.050Z,1019.19
2024-02-29T07:23:59.783Z,1019.17
2024-02-29T07:25:01.099Z,1019.2
2024-02-29T07:25:59.809Z,1019.19
2024-02-29T07:27:01.052Z,1019.2
2024-02-29T07:27:59.889Z,1019.22
2024-02-29T07:28:58.696Z,1019.21
2024-02-29T07:30:00.956Z,1019.22
2024-02-29T07:30:59.680Z,1019.21
2024-02-29T07:32:00.997Z,1019.22
2024-02-29T07:32:59.777Z,1019.22
2024-02-29T07:34:01.014Z,1019.19
2024-02-29T07:34:59.829Z,1019.16
2024-02-29T07:36:01.031Z,1019.2
2024-02-29T07:36:59.785Z,1019.22
2024-02-29T07:38:01.040Z,1019.18
2024-02-29T07:38:59.744Z,1019.2
2024-02-29T07:40:01.350Z,1019.23
2024-02-29T07:41:00.493Z,1019.23
2024-02-29T07:41:59.413Z,1019.27
2024-02-29T07:43:00.136Z,1019.25
2024-02-29T07:43:59.010Z,1019.27
2024-02-29T07:44:59.681Z,1019.25
2024-02-29T07:46:01.480Z,1019.26
2024-02-29T07:47:00.233Z,1019.28
2024-02-29T07:47:59.030Z,1019.25
2024-02-29T07:48:59.915Z,1019.27
2024-02-29T07:49:59.276Z,1019.27
2024-02-29T07:50:59.979Z,1019.26
2024-02-29T07:51:58.746Z,1019.29
2024-02-29T07:53:01.016Z,1019.28
2024-02-29T07:53:59.678Z,1019.27
2024-02-29T07:55:01.042Z,1019.3
2024-02-29T07:55:59.799Z,1019.35
2024-02-29T07:57:01.028Z,1019.37
2024-02-29T07:57:59.733Z,1019.35
2024-02-29T07:59:01.043Z,1019.32
2024-02-29T07:59:59.873Z,1019.31
2024-02-29T08:01:01.099Z,1019.29
2024-02-29T08:01:59.949Z,1019.31
2024-02-29T08:02:59.055Z,1019.3
2024-02-29T08:03:59.755Z,1019.28
2024-02-29T08:05:01.014Z,1019.27
2024-02-29T08:05:59.747Z,1019.22
2024-02-29T08:07:01.410Z,1019.23
2024-02-29T08:08:00.213Z,1019.22
2024-02-29T08:08:58.876Z,1019.24
2024-02-29T08:10:00.770Z,1019.21
2024-02-29T08:10:59.468Z,1019.21
2024-02-29T08:12:00.269Z,1019.21
2024-02-29T08:12:59.002Z,1019.23
2024-02-29T08:13:59.711Z,1019.13
2024-02-29T08:15:00.974Z,1019.13
2024-02-29T08:15:59.745Z,1019.15
2024-02-29T08:17:01.049Z,1019.16
2024-02-29T08:17:59.751Z,1019.12
2024-02-29T08:19:01.009Z,1019.14
2024-02-29T08:19:59.740Z,1019.14
2024-02-29T08:21:01.388Z,1019.14
2024-02-29T08:22:00.126Z,1019.16
2024-02-29T08:22:58.858Z,1019.14
2024-02-29T08:24:00.969Z,1019.13
2024-02-29T08:24:59.994Z,1019.15
2024-02-29T08:25:58.947Z,1019.18
2024-02-29T08:26:59.920Z,1019.17
2024-02-29T08:28:01.076Z,1019.17
2024-02-29T08:28:59.750Z,1019.19
2024-02-29T08:30:01.940Z,1019.16
2024-02-29T08:31:01.082Z,1019.15
2024-02-29T08:31:59.863Z,1019.19
2024-02-29T08:33:01.063Z,1019.2
2024-02-29T08:33:59.838Z,1019.23
2024-02-29T08:35:03.297Z,1019.17
2024-02-29T08:36:01.019Z,1019.19
2024-02-29T08:36:59.781Z,1019.21
2024-02-29T08:38:01.022Z,1019.19
2024-02-29T08:38:59.758Z,1019.2
2024-02-29T08:40:05.660Z,1019.22
2024-02-29T08:41:01.402Z,1019.18
2024-02-29T08:42:00.108Z,1019.14
2024-02-29T08:42:58.887Z,1019.11
2024-02-29T08:44:01.020Z,1019.08
2024-02-29T08:45:08.134Z,1019.05
2024-02-29T08:46:01.281Z,1019.04
2024-02-29T08:46:59.816Z,1019.08
2024-02-29T08:48:01.131Z,1019.06
2024-02-29T08:49:03.536Z,1019.07
2024-02-29T08:50:10.193Z,1019.03
2024-02-29T08:50:59.803Z,1019.02
2024-02-29T08:52:01.076Z,1019.01
2024-02-29T08:52:59.858Z,1019.04
2024-02-29T08:54:01.269Z,1019.05
2024-02-29T08:55:13.636Z,1019.02
2024-02-29T08:55:59.976Z,1018.98
2024-02-29T08:56:58.759Z,1019.01
2024-02-29T08:58:00.980Z,1018.95
2024-02-29T08:58:59.730Z,1018.97
2024-02-29T09:00:17.110Z,1018.92
2024-02-29T09:01:01.049Z,1018.91
2024-02-29T09:01:59.861Z,1018.9
2024-02-29T09:03:01.043Z,1018.88
2024-02-29T09:03:59.749Z,1018.9
2024-02-29T09:05:01.058Z,1018.91
2024-02-29T09:05:59.740Z,1018.92
2024-02-29T09:07:01.391Z,1018.9
2024-02-29T09:08:00.146Z,1018.88
2024-02-29T09:08:58.826Z,1018.86
2024-02-29T09:10:01.112Z,1018.84
2024-02-29T09:10:59.985Z,1018.79
2024-02-29T09:11:58.726Z,1018.79
2024-02-29T09:13:04.695Z,1018.79
2024-02-29T09:14:00.017Z,1018.73
2024-02-29T09:14:58.769Z,1018.72
2024-02-29T09:16:01.460Z,1018.78
2024-02-29T09:17:00.242Z,1018.73
2024-02-29T09:17:59.039Z,1018.75
2024-02-29T09:19:01.745Z,1018.7
2024-02-29T09:19:59.816Z,1018.72
2024-02-29T09:21:01.060Z,1018.71
2024-02-29T09:21:59.721Z,1018.7
2024-02-29T09:23:00.959Z,1018.74
2024-02-29T09:23:59.639Z,1018.72
2024-02-29T09:25:00.385Z,1018.74
2024-02-29T09:25:59.033Z,1018.73
2024-02-29T09:26:59.742Z,1018.75
2024-02-29T09:28:01.030Z,1018.68
2024-02-29T09:28:59.755Z,1018.69
2024-02-29T09:30:01.006Z,1018.66
2024-02-29T09:30:59.713Z,1018.62
2024-02-29T09:32:01.069Z,1018.61
2024-02-29T09:32:59.921Z,1018.59
2024-02-29T09:33:58.701Z,1018.59
2024-02-29T09:35:01.057Z,1018.56
2024-02-29T09:35:59.705Z,1018.58
2024-02-29T09:37:01.020Z,1018.54
2024-02-29T09:37:59.831Z,1018.55
2024-02-29T09:39:01.160Z,1018.47
2024-02-29T09:40:01.984Z,1018.49
2024-02-29T09:41:07.289Z,1018.48
2024-02-29T09:42:12.366Z,1018.48
2024-02-29T09:43:00.319Z,1018.51
2024-02-29T09:43:59.042Z,1018.52
2024-02-29T09:44:59.754Z,1018.47
2024-02-29T09:46:01.036Z,1018.52
2024-02-29T09:46:59.834Z,1018.44
2024-02-29T09:48:00.945Z,1018.43
2024-02-29T09:48:59.707Z,1018.43
2024-02-29T09:50:05.257Z,1018.43
2024-02-29T09:51:01.032Z,1018.42
2024-02-29T09:51:59.753Z,1018.39
2024-02-29T09:53:01.040Z,1018.44
2024-02-29T09:53:59.720Z,1018.38
2024-02-29T09:55:00.989Z,1018.4
2024-02-29T09:55:59.734Z,1018.42
2024-02-29T09:57:01.059Z,1018.38
2024-02-29T09:57:59.800Z,1018.4
2024-02-29T09:59:01.025Z,1018.4
2024-02-29T09:59:59.686Z,1018.39
2024-02-29T10:01:01.079Z,1018.39
2024-02-29T10:02:00.085Z,1018.36
2024-02-29T10:02:58.840Z,1018.37
2024-02-29T10:04:01.187Z,1018.28
2024-02-29T10:04:59.889Z,1018.33
2024-02-29T10:06:01.293Z,1018.34
2024-02-29T10:07:00.034Z,1018.25
2024-02-29T10:07:58.775Z,1018.26
2024-02-29T10:09:01.117Z,1018.23
2024-02-29T10:09:59.862Z,1018.22
2024-02-29T10:11:01.001Z,1018.24
2024-02-29T10:11:59.783Z,1018.26
2024-02-29T10:13:01.027Z,1018.2
2024-02-29T10:13:59.745Z,1018.22
2024-02-29T10:15:01.126Z,1018.19
2024-02-29T10:16:04.132Z,1018.18
2024-02-29T10:16:59.883Z,1018.15
2024-02-29T10:18:01.111Z,1018.12
2024-02-29T10:18:59.967Z,1018.08
2024-02-29T10:19:58.657Z,1018.06
2024-02-29T10:21:05.963Z,1018.08
2024-02-29T10:22:00.251Z,1018.04
2024-02-29T10:22:58.986Z,1018.01
2024-02-29T10:23:59.719Z,1018.07
2024-02-29T10:25:01.092Z,1018.05
2024-02-29T10:26:08.981Z,1018.02
2024-02-29T10:26:59.805Z,1018.02
2024-02-29T10:28:01.101Z,1017.97
2024-02-29T10:28:59.852Z,1017.98
2024-02-29T10:30:00.986Z,1017.94
2024-02-29T10:31:10.200Z,1017.92
2024-02-29T10:31:59.759Z,1017.89
2024-02-29T10:33:01.187Z,1017.9
2024-02-29T10:33:59.788Z,1017.87
2024-02-29T10:35:00.957Z,1017.82
2024-02-29T10:36:12.567Z,1017.85
2024-02-29T10:36:59.640Z,1017.81
2024-02-29T10:38:00.310Z,1017.76
2024-02-29T10:38:59.086Z,1017.8
2024-02-29T10:40:00.019Z,1017.77
2024-02-29T10:40:58.780Z,1017.79
2024-02-29T10:42:01.437Z,1017.78
2024-02-29T10:43:00.168Z,1017.76
2024-02-29T10:43:58.928Z,1017.72
2024-02-29T10:45:00.997Z,1017.68
2024-02-29T10:45:59.753Z,1017.66
2024-02-29T10:47:00.998Z,1017.62
2024-02-29T10:47:59.704Z,1017.61
2024-02-29T10:49:01.039Z,1017.5
2024-02-29T10:49:59.778Z,1017.57
2024-02-29T10:51:01.327Z,1017.54
2024-02-29T10:52:00.038Z,1017.49
2024-02-29T10:52:58.687Z,1017.51
2024-02-29T10:54:01.073Z,1017.49
2024-02-29T10:54:59.845Z,1017.47
2024-02-29T10:56:01.041Z,1017.44
2024-02-29T10:56:59.818Z,1017.43
2024-02-29T10:58:01.109Z,1017.42
2024-02-29T10:58:59.792Z,1017.37
2024-02-29T11:00:01.465Z,1017.34
2024-02-29T11:01:00.210Z,1017.39
2024-02-29T11:01:59.175Z,1017.39
2024-02-29T11:02:59.931Z,1017.3
2024-02-29T11:03:58.773Z,1017.31
2024-02-29T11:05:01.005Z,1017.31
2024-02-29T11:05:59.672Z,1017.25
2024-02-29T11:07:00.529Z,1017.26
2024-02-29T11:07:59.279Z,1017.28
2024-02-29T11:08:59.998Z,1017.27
2024-02-29T11:09:58.698Z,1017.29
2024-02-29T11:11:01.060Z,1017.25
2024-02-29T11:11:59.797Z,1017.22
2024-02-29T11:13:01.084Z,1017.13
2024-02-29T11:13:59.834Z,1017.17
2024-02-29T11:15:01.192Z,1017.11
2024-02-29T11:15:59.984Z,1017.09
2024-02-29T11:16:58.629Z,1017.08
2024-02-29T11:18:01.029Z,1017.08
2024-02-29T11:18:59.898Z,1017.05
2024-02-29T11:20:01.053Z,1017.05
2024-02-29T11:20:59.751Z,1017.01
2024-02-29T11:22:01.036Z,1017.04
2024-02-29T11:23:03.305Z,1016.98
2024-02-29T11:23:59.792Z,1016.93
2024-02-29T11:25:01.654Z,1016.94
2024-02-29T11:26:00.350Z,1016.9
2024-02-29T11:26:59.169Z,1016.9
2024-02-29T11:27:59.928Z,1016.86
2024-02-29T11:28:58.950Z,1016.83
2024-02-29T11:29:59.955Z,1016.79
2024-02-29T11:31:07.416Z,1016.83
2024-02-29T11:31:59.788Z,1016.82
2024-02-29T11:33:01.116Z,1016.83
2024-02-29T11:34:00.379Z,1016.79
2024-02-29T11:34:59.123Z,1016.78
2024-02-29T11:35:59.857Z,1016.73
2024-02-29T11:37:01.061Z,1016.73
2024-02-29T11:37:59.754Z,1016.75
2024-02-29T11:39:00.970Z,1016.72
2024-02-29T11:39:59.698Z,1016.66
2024-02-29T11:41:00.986Z,1016.65
2024-02-29T11:41:59.677Z,1016.67
2024-02-29T11:43:01.466Z,1016.63
2024-02-29T11:44:00.208Z,1016.62
2024-02-29T11:44:58.897Z,1016.61
2024-02-29T11:46:00.721Z,1016.59
2024-02-29T11:46:59.529Z,1016.54
2024-02-29T11:48:01.119Z,1016.53
2024-02-29T11:49:00.221Z,1016.47
2024-02-29T11:49:58.905Z,1016.45
2024-02-29T11:51:00.974Z,1016.49
2024-02-29T11:51:59.701Z,1016.42
2024-02-29T11:53:00.981Z,1016.43
2024-02-29T11:53:59.664Z,1016.42
2024-02-29T11:55:00.335Z,1016.41
2024-02-29T11:56:07.002Z,1016.34
2024-02-29T11:57:01.943Z,1016.36
2024-02-29T11:58:00.231Z,1016.32
2024-02-29T11:58:58.962Z,1016.26
2024-02-29T11:59:59.719Z,1016.29
2024-02-29T12:01:01.107Z,1016.22
2024-02-29T12:02:00.973Z,1016.24
2024-02-29T12:02:59.722Z,1016.19
2024-02-29T12:04:01.100Z,1016.22
2024-02-29T12:04:59.866Z,1016.18
2024-02-29T12:06:00.989Z,1016.07
2024-02-29T12:07:03.736Z,1016.1
2024-02-29T12:07:59.640Z,1016.13